sensor_id;sensor_type;location;lat;lon;timestamp;P1;durP1;ratioP1;P2;durP2;ratioP2
10657;SDS011;5377;43.276;26.930;2023-04-03T00:00:28;1.83;;;1.35;;
10657;SDS011;5377;43.276;26.930;2023-04-03T00:02:56;1.88;;;1.77;;
10657;SDS011;5377;43.276;26.930;2023-04-03T00:05:23;1.40;;;1.30;;
10657;SDS011;5377;43.276;26.930;2023-04-03T00:07:50;1.23;;;0.85;;
10657;SDS011;5377;43.276;26.930;2023-04-03T00:10:17;0.88;;;0.88;;
10657;SDS011;5377;43.276;26.930;2023-04-03T00:12:45;2.25;;;0.63;;
10657;SDS011;5377;43.276;26.930;2023-04-03T00:15:12;0.47;;;0.47;;
10657;SDS011;5377;43.276;26.930;2023-04-03T00:17:39;1.75;;;0.50;;
10657;SDS011;5377;43.276;26.930;2023-04-03T00:20:06;2.25;;;0.60;;
10657;SDS011;5377;43.276;26.930;2023-04-03T00:22:34;0.90;;;0.47;;
10657;SDS011;5377;43.276;26.930;2023-04-03T00:25:00;0.57;;;0.40;;
10657;SDS011;5377;43.276;26.930;2023-04-03T00:27:27;0.60;;;0.40;;
10657;SDS011;5377;43.276;26.930;2023-04-03T00:29:55;0.47;;;0.47;;
10657;SDS011;5377;43.276;26.930;2023-04-03T00:32:22;0.77;;;0.50;;
10657;SDS011;5377;43.276;26.930;2023-04-03T00:34:49;0.55;;;0.40;;
10657;SDS011;5377;43.276;26.930;2023-04-03T00:37:16;0.90;;;0.50;;
10657;SDS011;5377;43.276;26.930;2023-04-03T00:39:42;0.65;;;0.50;;
10657;SDS011;5377;43.276;26.930;2023-04-03T00:42:09;0.60;;;0.50;;
10657;SDS011;5377;43.276;26.930;2023-04-03T00:47:41;0.85;;;0.52;;
10657;SDS011;5377;43.276;26.930;2023-04-03T00:50:08;0.47;;;0.47;;
10657;SDS011;5377;43.276;26.930;2023-04-03T00:52:35;1.10;;;0.63;;
10657;SDS011;5377;43.276;26.930;2023-04-03T00:55:05;2.05;;;0.60;;
10657;SDS011;5377;43.276;26.930;2023-04-03T00:57:34;0.63;;;0.52;;
10657;SDS011;5377;43.276;26.930;2023-04-03T01:00:03;1.40;;;0.60;;
10657;SDS011;5377;43.276;26.930;2023-04-03T01:02:34;1.75;;;0.55;;
10657;SDS011;5377;43.276;26.930;2023-04-03T01:05:02;0.50;;;0.50;;
10657;SDS011;5377;43.276;26.930;2023-04-03T01:07:31;0.70;;;0.70;;
10657;SDS011;5377;43.276;26.930;2023-04-03T01:10:00;0.50;;;0.50;;
10657;SDS011;5377;43.276;26.930;2023-04-03T01:12:30;0.90;;;0.50;;
10657;SDS011;5377;43.276;26.930;2023-04-03T01:14:58;0.85;;;0.60;;
10657;SDS011;5377;43.276;26.930;2023-04-03T01:17:28;0.50;;;0.50;;
10657;SDS011;5377;43.276;26.930;2023-04-03T01:20:00;3.97;;;0.70;;
10657;SDS011;5377;43.276;26.930;2023-04-03T01:22:46;1.35;;;0.50;;
10657;SDS011;5377;43.276;26.930;2023-04-03T01:25:21;0.43;;;0.43;;
10657;SDS011;5377;43.276;26.930;2023-04-03T01:27:47;0.55;;;0.55;;
10657;SDS011;5377;43.276;26.930;2023-04-03T01:30:16;0.82;;;0.55;;
10657;SDS011;5377;43.276;26.930;2023-04-03T01:32:46;1.35;;;0.50;;
10657;SDS011;5377;43.276;26.930;2023-04-03T01:35:13;1.50;;;0.57;;
10657;SDS011;5377;43.276;26.930;2023-04-03T01:37:40;0.32;;;0.32;;
10657;SDS011;5377;43.276;26.930;2023-04-03T01:40:07;1.58;;;0.82;;
10657;SDS011;5377;43.276;26.930;2023-04-03T01:42:34;0.80;;;0.80;;
10657;SDS011;5377;43.276;26.930;2023-04-03T01:45:01;0.60;;;0.60;;
10657;SDS011;5377;43.276;26.930;2023-04-03T01:47:29;0.70;;;0.70;;
10657;SDS011;5377;43.276;26.930;2023-04-03T01:49:57;1.05;;;0.50;;
10657;SDS011;5377;43.276;26.930;2023-04-03T01:52:24;0.50;;;0.50;;
10657;SDS011;5377;43.276;26.930;2023-04-03T01:54:50;1.52;;;0.80;;
10657;SDS011;5377;43.276;26.930;2023-04-03T01:57:17;0.60;;;0.60;;
10657;SDS011;5377;43.276;26.930;2023-04-03T01:59:44;1.90;;;0.60;;
10657;SDS011;5377;43.276;26.930;2023-04-03T02:02:11;0.80;;;0.77;;
10657;SDS011;5377;43.276;26.930;2023-04-03T02:04:39;0.55;;;0.52;;
10657;SDS011;5377;43.276;26.930;2023-04-03T02:07:07;0.50;;;0.50;;
10657;SDS011;5377;43.276;26.930;2023-04-03T02:09:35;0.95;;;0.82;;
10657;SDS011;5377;43.276;26.930;2023-04-03T02:12:01;0.75;;;0.50;;
10657;SDS011;5377;43.276;26.930;2023-04-03T02:14:28;0.50;;;0.40;;
10657;SDS011;5377;43.276;26.930;2023-04-03T02:16:55;1.90;;;0.40;;
10657;SDS011;5377;43.276;26.930;2023-04-03T02:19:22;0.50;;;0.50;;
10657;SDS011;5377;43.276;26.930;2023-04-03T02:21:49;1.50;;;0.60;;
10657;SDS011;5377;43.276;26.930;2023-04-03T02:24:17;0.65;;;0.60;;
10657;SDS011;5377;43.276;26.930;2023-04-03T02:26:44;0.82;;;0.50;;
10657;SDS011;5377;43.276;26.930;2023-04-03T02:29:10;1.52;;;0.50;;
10657;SDS011;5377;43.276;26.930;2023-04-03T02:31:37;1.08;;;1.00;;
10657;SDS011;5377;43.276;26.930;2023-04-03T02:34:04;2.38;;;0.70;;
10657;SDS011;5377;43.276;26.930;2023-04-03T02:36:31;1.35;;;1.08;;
10657;SDS011;5377;43.276;26.930;2023-04-03T02:38:57;1.00;;;1.00;;
10657;SDS011;5377;43.276;26.930;2023-04-03T02:41:26;1.60;;;0.80;;
10657;SDS011;5377;43.276;26.930;2023-04-03T02:43:59;4.43;;;1.85;;
10657;SDS011;5377;43.276;26.930;2023-04-03T02:46:26;3.53;;;2.00;;
10657;SDS011;5377;43.276;26.930;2023-04-03T02:48:53;4.30;;;2.22;;
10657;SDS011;5377;43.276;26.930;2023-04-03T02:51:20;4.43;;;2.90;;
10657;SDS011;5377;43.276;26.930;2023-04-03T02:53:47;4.43;;;3.22;;
10657;SDS011;5377;43.276;26.930;2023-04-03T02:56:14;2.67;;;1.80;;
10657;SDS011;5377;43.276;26.930;2023-04-03T02:58:43;1.80;;;1.47;;
10657;SDS011;5377;43.276;26.930;2023-04-03T03:01:10;2.03;;;1.92;;
10657;SDS011;5377;43.276;26.930;2023-04-03T03:03:37;2.47;;;1.87;;
10657;SDS011;5377;43.276;26.930;2023-04-03T03:06:05;4.80;;;3.30;;
10657;SDS011;5377;43.276;26.930;2023-04-03T03:08:33;3.67;;;3.27;;
10657;SDS011;5377;43.276;26.930;2023-04-03T03:11:01;5.87;;;4.93;;
10657;SDS011;5377;43.276;26.930;2023-04-03T03:13:28;4.07;;;2.30;;
10657;SDS011;5377;43.276;26.930;2023-04-03T03:15:56;6.50;;;4.80;;
10657;SDS011;5377;43.276;26.930;2023-04-03T03:18:23;5.70;;;3.80;;
10657;SDS011;5377;43.276;26.930;2023-04-03T03:20:51;6.70;;;2.90;;
10657;SDS011;5377;43.276;26.930;2023-04-03T03:23:18;2.20;;;1.80;;
10657;SDS011;5377;43.276;26.930;2023-04-03T03:25:45;2.73;;;1.90;;
10657;SDS011;5377;43.276;26.930;2023-04-03T03:28:11;2.20;;;1.63;;
10657;SDS011;5377;43.276;26.930;2023-04-03T03:30:38;4.57;;;2.80;;
10657;SDS011;5377;43.276;26.930;2023-04-03T03:33:06;2.47;;;2.27;;
10657;SDS011;5377;43.276;26.930;2023-04-03T03:35:33;3.92;;;2.53;;
10657;SDS011;5377;43.276;26.930;2023-04-03T03:38:00;11.20;;;4.70;;
10657;SDS011;5377;43.276;26.930;2023-04-03T03:40:27;8.43;;;5.00;;
10657;SDS011;5377;43.276;26.930;2023-04-03T03:42:53;7.03;;;3.67;;
10657;SDS011;5377;43.276;26.930;2023-04-03T03:45:20;9.43;;;4.87;;
10657;SDS011;5377;43.276;26.930;2023-04-03T03:47:47;4.87;;;3.23;;
10657;SDS011;5377;43.276;26.930;2023-04-03T03:50:15;3.97;;;3.20;;
10657;SDS011;5377;43.276;26.930;2023-04-03T03:52:42;3.63;;;3.00;;
10657;SDS011;5377;43.276;26.930;2023-04-03T03:55:09;4.10;;;3.23;;
10657;SDS011;5377;43.276;26.930;2023-04-03T03:57:36;7.33;;;2.87;;
10657;SDS011;5377;43.276;26.930;2023-04-03T04:00:03;6.57;;;3.33;;
10657;SDS011;5377;43.276;26.930;2023-04-03T04:02:32;2.30;;;2.10;;
10657;SDS011;5377;43.276;26.930;2023-04-03T04:04:58;5.20;;;3.53;;
10657;SDS011;5377;43.276;26.930;2023-04-03T04:07:27;4.40;;;4.00;;
10657;SDS011;5377;43.276;26.930;2023-04-03T04:09:54;3.90;;;3.50;;
10657;SDS011;5377;43.276;26.930;2023-04-03T04:12:21;9.83;;;7.70;;
10657;SDS011;5377;43.276;26.930;2023-04-03T04:14:48;4.77;;;3.57;;
10657;SDS011;5377;43.276;26.930;2023-04-03T04:17:14;3.20;;;2.53;;
10657;SDS011;5377;43.276;26.930;2023-04-03T04:19:41;7.77;;;5.47;;
10657;SDS011;5377;43.276;26.930;2023-04-03T04:22:08;12.57;;;7.80;;
10657;SDS011;5377;43.276;26.930;2023-04-03T04:24:36;8.03;;;5.33;;
10657;SDS011;5377;43.276;26.930;2023-04-03T04:27:03;6.33;;;4.93;;
10657;SDS011;5377;43.276;26.930;2023-04-03T04:29:30;13.57;;;8.97;;
10657;SDS011;5377;43.276;26.930;2023-04-03T04:32:00;21.27;;;8.63;;
10657;SDS011;5377;43.276;26.930;2023-04-03T04:34:27;28.17;;;14.30;;
10657;SDS011;5377;43.276;26.930;2023-04-03T04:36:54;9.30;;;5.80;;
10657;SDS011;5377;43.276;26.930;2023-04-03T04:39:21;14.10;;;7.40;;
10657;SDS011;5377;43.276;26.930;2023-04-03T04:41:49;8.07;;;6.93;;
10657;SDS011;5377;43.276;26.930;2023-04-03T04:44:16;12.07;;;5.80;;
10657;SDS011;5377;43.276;26.930;2023-04-03T04:46:43;7.15;;;5.25;;
10657;SDS011;5377;43.276;26.930;2023-04-03T04:49:10;9.70;;;6.23;;
10657;SDS011;5377;43.276;26.930;2023-04-03T04:51:37;8.82;;;5.22;;
10657;SDS011;5377;43.276;26.930;2023-04-03T04:54:04;13.18;;;5.22;;
10657;SDS011;5377;43.276;26.930;2023-04-03T04:56:31;5.30;;;3.67;;
10657;SDS011;5377;43.276;26.930;2023-04-03T04:58:59;12.00;;;4.30;;
10657;SDS011;5377;43.276;26.930;2023-04-03T05:01:27;7.03;;;3.37;;
10657;SDS011;5377;43.276;26.930;2023-04-03T05:03:54;9.90;;;4.10;;
10657;SDS011;5377;43.276;26.930;2023-04-03T05:06:20;9.48;;;4.70;;
10657;SDS011;5377;43.276;26.930;2023-04-03T05:08:47;10.53;;;3.93;;
10657;SDS011;5377;43.276;26.930;2023-04-03T05:11:14;8.00;;;4.82;;
10657;SDS011;5377;43.276;26.930;2023-04-03T05:13:41;9.18;;;3.83;;
10657;SDS011;5377;43.276;26.930;2023-04-03T05:16:09;7.15;;;3.97;;
10657;SDS011;5377;43.276;26.930;2023-04-03T05:18:36;11.00;;;5.13;;
10657;SDS011;5377;43.276;26.930;2023-04-03T05:21:03;14.37;;;5.50;;
10657;SDS011;5377;43.276;26.930;2023-04-03T05:23:30;9.25;;;4.53;;
10657;SDS011;5377;43.276;26.930;2023-04-03T05:25:57;6.20;;;3.88;;
10657;SDS011;5377;43.276;26.930;2023-04-03T05:28:23;7.57;;;4.53;;
10657;SDS011;5377;43.276;26.930;2023-04-03T05:30:54;10.20;;;4.82;;
10657;SDS011;5377;43.276;26.930;2023-04-03T05:33:23;10.07;;;6.03;;
10657;SDS011;5377;43.276;26.930;2023-04-03T05:35:51;12.52;;;6.05;;
10657;SDS011;5377;43.276;26.930;2023-04-03T05:38:18;13.63;;;5.88;;
10657;SDS011;5377;43.276;26.930;2023-04-03T05:40:45;13.20;;;5.65;;
10657;SDS011;5377;43.276;26.930;2023-04-03T05:43:12;7.15;;;5.15;;
10657;SDS011;5377;43.276;26.930;2023-04-03T05:45:39;12.13;;;5.32;;
10657;SDS011;5377;43.276;26.930;2023-04-03T05:48:06;12.50;;;5.82;;
10657;SDS011;5377;43.276;26.930;2023-04-03T05:50:34;5.57;;;3.72;;
10657;SDS011;5377;43.276;26.930;2023-04-03T05:53:06;9.50;;;5.97;;
10657;SDS011;5377;43.276;26.930;2023-04-03T05:55:40;5.95;;;3.42;;
10657;SDS011;5377;43.276;26.930;2023-04-03T05:58:07;6.00;;;1.70;;
10657;SDS011;5377;43.276;26.930;2023-04-03T06:00:34;9.65;;;3.40;;
10657;SDS011;5377;43.276;26.930;2023-04-03T06:03:01;6.95;;;2.95;;
10657;SDS011;5377;43.276;26.930;2023-04-03T06:05:28;5.28;;;2.03;;
10657;SDS011;5377;43.276;26.930;2023-04-03T06:07:56;6.85;;;2.05;;
10657;SDS011;5377;43.276;26.930;2023-04-03T06:10:23;4.85;;;2.35;;
10657;SDS011;5377;43.276;26.930;2023-04-03T06:12:50;4.43;;;1.70;;
10657;SDS011;5377;43.276;26.930;2023-04-03T06:15:17;4.35;;;1.65;;
10657;SDS011;5377;43.276;26.930;2023-04-03T06:17:43;0.75;;;0.75;;
10657;SDS011;5377;43.276;26.930;2023-04-03T06:20:11;3.90;;;1.20;;
10657;SDS011;5377;43.276;26.930;2023-04-03T06:22:38;8.77;;;3.28;;
10657;SDS011;5377;43.276;26.930;2023-04-03T06:25:08;3.00;;;1.67;;
10657;SDS011;5377;43.276;26.930;2023-04-03T06:27:36;5.35;;;1.88;;
10657;SDS011;5377;43.276;26.930;2023-04-03T06:30:03;6.20;;;1.48;;
10657;SDS011;5377;43.276;26.930;2023-04-03T06:32:31;1.90;;;0.60;;
10657;SDS011;5377;43.276;26.930;2023-04-03T06:34:58;0.80;;;0.75;;
10657;SDS011;5377;43.276;26.930;2023-04-03T06:37:25;2.60;;;1.70;;
10657;SDS011;5377;43.276;26.930;2023-04-03T06:39:53;1.95;;;0.52;;
10657;SDS011;5377;43.276;26.930;2023-04-03T06:42:22;0.70;;;0.70;;
10657;SDS011;5377;43.276;26.930;2023-04-03T06:44:49;1.70;;;0.70;;
10657;SDS011;5377;43.276;26.930;2023-04-03T06:47:16;2.22;;;0.75;;
10657;SDS011;5377;43.276;26.930;2023-04-03T06:49:43;2.38;;;0.90;;
10657;SDS011;5377;43.276;26.930;2023-04-03T06:52:10;0.90;;;0.70;;
10657;SDS011;5377;43.276;26.930;2023-04-03T06:54:38;1.15;;;0.80;;
10657;SDS011;5377;43.276;26.930;2023-04-03T06:57:05;3.03;;;0.98;;
10657;SDS011;5377;43.276;26.930;2023-04-03T06:59:33;7.82;;;1.20;;
10657;SDS011;5377;43.276;26.930;2023-04-03T07:02:01;0.60;;;0.60;;
10657;SDS011;5377;43.276;26.930;2023-04-03T07:04:28;0.82;;;0.77;;
10657;SDS011;5377;43.276;26.930;2023-04-03T07:06:55;1.35;;;0.57;;
10657;SDS011;5377;43.276;26.930;2023-04-03T07:09:21;0.80;;;0.77;;
10657;SDS011;5377;43.276;26.930;2023-04-03T07:11:48;1.60;;;0.93;;
10657;SDS011;5377;43.276;26.930;2023-04-03T07:14:15;0.90;;;0.60;;
10657;SDS011;5377;43.276;26.930;2023-04-03T07:16:43;5.72;;;0.68;;
10657;SDS011;5377;43.276;26.930;2023-04-03T07:19:10;2.45;;;0.65;;
10657;SDS011;5377;43.276;26.930;2023-04-03T07:21:36;2.30;;;0.60;;
10657;SDS011;5377;43.276;26.930;2023-04-03T07:24:04;1.08;;;0.68;;
10657;SDS011;5377;43.276;26.930;2023-04-03T07:26:31;3.38;;;1.10;;
10657;SDS011;5377;43.276;26.930;2023-04-03T07:28:57;4.25;;;1.80;;
10657;SDS011;5377;43.276;26.930;2023-04-03T07:31:24;4.43;;;2.50;;
10657;SDS011;5377;43.276;26.930;2023-04-03T07:33:52;3.72;;;2.25;;
10657;SDS011;5377;43.276;26.930;2023-04-03T07:36:20;4.20;;;2.47;;
10657;SDS011;5377;43.276;26.930;2023-04-03T07:38:49;3.72;;;2.35;;
10657;SDS011;5377;43.276;26.930;2023-04-03T07:41:16;7.93;;;2.83;;
10657;SDS011;5377;43.276;26.930;2023-04-03T07:43:45;2.60;;;1.95;;
10657;SDS011;5377;43.276;26.930;2023-04-03T07:46:14;2.22;;;1.60;;
10657;SDS011;5377;43.276;26.930;2023-04-03T07:48:42;5.55;;;1.50;;
10657;SDS011;5377;43.276;26.930;2023-04-03T07:51:11;3.42;;;1.95;;
10657;SDS011;5377;43.276;26.930;2023-04-03T07:53:38;3.55;;;2.03;;
10657;SDS011;5377;43.276;26.930;2023-04-03T07:56:05;3.35;;;1.70;;
10657;SDS011;5377;43.276;26.930;2023-04-03T07:58:33;4.72;;;1.85;;
10657;SDS011;5377;43.276;26.930;2023-04-03T08:01:00;5.93;;;3.40;;
10657;SDS011;5377;43.276;26.930;2023-04-03T08:03:27;2.00;;;1.90;;
10657;SDS011;5377;43.276;26.930;2023-04-03T08:05:53;2.45;;;1.48;;
10657;SDS011;5377;43.276;26.930;2023-04-03T08:08:22;1.98;;;0.80;;
10657;SDS011;5377;43.276;26.930;2023-04-03T08:10:49;2.53;;;1.67;;
10657;SDS011;5377;43.276;26.930;2023-04-03T08:13:17;0.93;;;0.50;;
10657;SDS011;5377;43.276;26.930;2023-04-03T08:15:44;3.22;;;0.80;;
10657;SDS011;5377;43.276;26.930;2023-04-03T08:18:11;8.73;;;2.33;;
10657;SDS011;5377;43.276;26.930;2023-04-03T08:20:38;5.68;;;1.75;;
10657;SDS011;5377;43.276;26.930;2023-04-03T08:23:06;1.42;;;0.70;;
10657;SDS011;5377;43.276;26.930;2023-04-03T08:25:39;6.15;;;2.17;;
10657;SDS011;5377;43.276;26.930;2023-04-03T08:28:06;0.95;;;0.70;;
10657;SDS011;5377;43.276;26.930;2023-04-03T08:30:33;6.90;;;1.92;;
10657;SDS011;5377;43.276;26.930;2023-04-03T08:33:01;1.70;;;0.60;;
10657;SDS011;5377;43.276;26.930;2023-04-03T08:35:28;2.00;;;0.70;;
10657;SDS011;5377;43.276;26.930;2023-04-03T08:37:55;1.48;;;0.60;;
10657;SDS011;5377;43.276;26.930;2023-04-03T08:40:22;1.48;;;0.50;;
10657;SDS011;5377;43.276;26.930;2023-04-03T08:42:54;2.55;;;0.80;;
10657;SDS011;5377;43.276;26.930;2023-04-03T08:45:32;1.33;;;0.60;;
10657;SDS011;5377;43.276;26.930;2023-04-03T08:48:11;2.00;;;0.63;;
10657;SDS011;5377;43.276;26.930;2023-04-03T08:50:42;3.58;;;1.20;;
10657;SDS011;5377;43.276;26.930;2023-04-03T08:53:12;1.30;;;0.50;;
10657;SDS011;5377;43.276;26.930;2023-04-03T08:55:42;1.55;;;0.50;;
10657;SDS011;5377;43.276;26.930;2023-04-03T08:58:12;5.32;;;0.80;;
10657;SDS011;5377;43.276;26.930;2023-04-03T09:00:43;0.65;;;0.50;;
10657;SDS011;5377;43.276;26.930;2023-04-03T09:03:14;0.95;;;0.70;;
10657;SDS011;5377;43.276;26.930;2023-04-03T09:05:43;1.90;;;0.75;;
10657;SDS011;5377;43.276;26.930;2023-04-03T09:08:18;0.85;;;0.45;;
10657;SDS011;5377;43.276;26.930;2023-04-03T09:10:48;7.47;;;0.93;;
10657;SDS011;5377;43.276;26.930;2023-04-03T09:13:21;1.13;;;0.40;;
10657;SDS011;5377;43.276;26.930;2023-04-03T09:15:54;0.50;;;0.50;;
10657;SDS011;5377;43.276;26.930;2023-04-03T09:18:23;0.50;;;0.50;;
10657;SDS011;5377;43.276;26.930;2023-04-03T09:20:58;0.52;;;0.52;;
10657;SDS011;5377;43.276;26.930;2023-04-03T09:23:36;3.70;;;1.33;;
10657;SDS011;5377;43.276;26.930;2023-04-03T09:26:09;12.93;;;4.10;;
10657;SDS011;5377;43.276;26.930;2023-04-03T09:28:42;4.90;;;2.10;;
10657;SDS011;5377;43.276;26.930;2023-04-03T09:31:15;1.05;;;1.00;;
10657;SDS011;5377;43.276;26.930;2023-04-03T09:33:45;3.47;;;1.27;;
10657;SDS011;5377;43.276;26.930;2023-04-03T09:36:14;4.05;;;1.40;;
10657;SDS011;5377;43.276;26.930;2023-04-03T09:39:04;7.88;;;1.85;;
10657;SDS011;5377;43.276;26.930;2023-04-03T09:41:31;4.13;;;2.42;;
10657;SDS011;5377;43.276;26.930;2023-04-03T09:44:00;7.18;;;1.33;;
10657;SDS011;5377;43.276;26.930;2023-04-03T09:46:31;2.78;;;1.05;;
10657;SDS011;5377;43.276;26.930;2023-04-03T09:49:00;3.03;;;0.98;;
10657;SDS011;5377;43.276;26.930;2023-04-03T09:51:28;4.43;;;1.63;;
10657;SDS011;5377;43.276;26.930;2023-04-03T09:53:56;0.90;;;0.90;;
10657;SDS011;5377;43.276;26.930;2023-04-03T09:56:23;4.18;;;1.08;;
10657;SDS011;5377;43.276;26.930;2023-04-03T09:58:52;4.82;;;1.10;;
10657;SDS011;5377;43.276;26.930;2023-04-03T10:01:39;2.55;;;0.80;;
10657;SDS011;5377;43.276;26.930;2023-04-03T10:04:09;6.15;;;1.63;;
10657;SDS011;5377;43.276;26.930;2023-04-03T10:06:38;4.57;;;1.95;;
10657;SDS011;5377;43.276;26.930;2023-04-03T10:09:15;4.82;;;1.00;;
10657;SDS011;5377;43.276;26.930;2023-04-03T10:11:59;2.55;;;0.82;;
10657;SDS011;5377;43.276;26.930;2023-04-03T10:14:31;2.17;;;0.60;;
10657;SDS011;5377;43.276;26.930;2023-04-03T10:17:01;2.88;;;0.63;;
10657;SDS011;5377;43.276;26.930;2023-04-03T10:19:38;1.48;;;0.50;;
10657;SDS011;5377;43.276;26.930;2023-04-03T10:22:13;3.22;;;0.93;;
10657;SDS011;5377;43.276;26.930;2023-04-03T10:24:48;3.30;;;0.95;;
10657;SDS011;5377;43.276;26.930;2023-04-03T10:27:26;0.70;;;0.60;;
10657;SDS011;5377;43.276;26.930;2023-04-03T10:30:08;1.27;;;0.50;;
10657;SDS011;5377;43.276;26.930;2023-04-03T10:32:52;1.45;;;0.47;;
10657;SDS011;5377;43.276;26.930;2023-04-03T10:35:28;0.50;;;0.50;;
10657;SDS011;5377;43.276;26.930;2023-04-03T10:38:04;0.93;;;0.75;;
10657;SDS011;5377;43.276;26.930;2023-04-03T10:40:39;2.42;;;0.60;;
10657;SDS011;5377;43.276;26.930;2023-04-03T10:43:15;2.08;;;0.95;;
10657;SDS011;5377;43.276;26.930;2023-04-03T10:45:50;2.95;;;1.05;;
10657;SDS011;5377;43.276;26.930;2023-04-03T10:48:26;3.40;;;0.90;;
10657;SDS011;5377;43.276;26.930;2023-04-03T10:51:22;2.95;;;1.20;;
10657;SDS011;5377;43.276;26.930;2023-04-03T10:53:56;2.22;;;1.20;;
10657;SDS011;5377;43.276;26.930;2023-04-03T10:56:30;1.42;;;1.20;;
10657;SDS011;5377;43.276;26.930;2023-04-03T10:59:02;2.42;;;1.30;;
10657;SDS011;5377;43.276;26.930;2023-04-03T11:01:44;1.13;;;0.73;;
10657;SDS011;5377;43.276;26.930;2023-04-03T11:04:14;4.10;;;0.98;;
10657;SDS011;5377;43.276;26.930;2023-04-03T11:06:45;4.45;;;1.20;;
10657;SDS011;5377;43.276;26.930;2023-04-03T11:09:19;4.00;;;1.30;;
10657;SDS011;5377;43.276;26.930;2023-04-03T11:11:51;8.52;;;1.40;;
10657;SDS011;5377;43.276;26.930;2023-04-03T11:14:24;2.47;;;1.63;;
10657;SDS011;5377;43.276;26.930;2023-04-03T11:16:59;1.95;;;0.90;;
10657;SDS011;5377;43.276;26.930;2023-04-03T11:19:34;1.40;;;0.50;;
10657;SDS011;5377;43.276;26.930;2023-04-03T11:22:05;5.10;;;0.98;;
10657;SDS011;5377;43.276;26.930;2023-04-03T11:24:37;8.05;;;1.20;;
10657;SDS011;5377;43.276;26.930;2023-04-03T11:27:08;5.05;;;0.65;;
10657;SDS011;5377;43.276;26.930;2023-04-03T11:29:43;3.33;;;0.63;;
10657;SDS011;5377;43.276;26.930;2023-04-03T11:32:23;3.03;;;0.60;;
10657;SDS011;5377;43.276;26.930;2023-04-03T11:35:03;1.25;;;0.75;;
10657;SDS011;5377;43.276;26.930;2023-04-03T11:37:34;1.50;;;0.82;;
10657;SDS011;5377;43.276;26.930;2023-04-03T11:40:04;5.93;;;0.80;;
10657;SDS011;5377;43.276;26.930;2023-04-03T11:42:36;1.25;;;0.50;;
10657;SDS011;5377;43.276;26.930;2023-04-03T11:45:21;1.13;;;0.70;;
10657;SDS011;5377;43.276;26.930;2023-04-03T11:48:03;2.58;;;0.80;;
10657;SDS011;5377;43.276;26.930;2023-04-03T11:50:44;2.25;;;0.80;;
10657;SDS011;5377;43.276;26.930;2023-04-03T11:56:02;1.08;;;0.57;;
10657;SDS011;5377;43.276;26.930;2023-04-03T12:01:48;2.42;;;0.70;;
10657;SDS011;5377;43.276;26.930;2023-04-03T12:04:18;1.35;;;0.50;;
10657;SDS011;5377;43.276;26.930;2023-04-03T12:06:50;6.88;;;1.45;;
10657;SDS011;5377;43.276;26.930;2023-04-03T12:09:26;1.27;;;0.70;;
10657;SDS011;5377;43.276;26.930;2023-04-03T12:11:56;0.82;;;0.52;;
10657;SDS011;5377;43.276;26.930;2023-04-03T12:14:25;3.17;;;0.75;;
10657;SDS011;5377;43.276;26.930;2023-04-03T12:16:52;1.70;;;0.70;;
10657;SDS011;5377;43.276;26.930;2023-04-03T12:19:31;2.33;;;0.70;;
10657;SDS011;5377;43.276;26.930;2023-04-03T12:22:12;6.07;;;1.08;;
10657;SDS011;5377;43.276;26.930;2023-04-03T12:24:41;5.22;;;1.67;;
10657;SDS011;5377;43.276;26.930;2023-04-03T12:30:06;5.30;;;1.52;;
10657;SDS011;5377;43.276;26.930;2023-04-03T12:35:46;4.72;;;1.58;;
10657;SDS011;5377;43.276;26.930;2023-04-03T12:38:33;5.15;;;1.35;;
10657;SDS011;5377;43.276;26.930;2023-04-03T12:41:18;1.58;;;1.00;;
10657;SDS011;5377;43.276;26.930;2023-04-03T12:43:54;2.97;;;1.67;;
10657;SDS011;5377;43.276;26.930;2023-04-03T12:46:36;3.92;;;1.40;;
10657;SDS011;5377;43.276;26.930;2023-04-03T12:49:12;5.95;;;1.20;;
10657;SDS011;5377;43.276;26.930;2023-04-03T12:51:50;0.80;;;0.55;;
10657;SDS011;5377;43.276;26.930;2023-04-03T12:54:18;2.80;;;0.60;;
10657;SDS011;5377;43.276;26.930;2023-04-03T12:56:50;1.23;;;0.80;;
10657;SDS011;5377;43.276;26.930;2023-04-03T12:59:18;1.30;;;0.80;;
10657;SDS011;5377;43.276;26.930;2023-04-03T13:01:52;1.45;;;0.65;;
10657;SDS011;5377;43.276;26.930;2023-04-03T13:04:20;1.70;;;0.60;;
10657;SDS011;5377;43.276;26.930;2023-04-03T13:06:47;1.60;;;0.93;;
10657;SDS011;5377;43.276;26.930;2023-04-03T13:09:19;4.97;;;1.58;;
10657;SDS011;5377;43.276;26.930;2023-04-03T13:11:48;2.17;;;2.00;;
10657;SDS011;5377;43.276;26.930;2023-04-03T13:14:17;2.40;;;0.70;;
10657;SDS011;5377;43.276;26.930;2023-04-03T13:16:53;0.60;;;0.60;;
10657;SDS011;5377;43.276;26.930;2023-04-03T13:19:22;1.27;;;0.60;;
10657;SDS011;5377;43.276;26.930;2023-04-03T13:21:49;1.45;;;1.10;;
10657;SDS011;5377;43.276;26.930;2023-04-03T13:24:23;1.63;;;1.20;;
10657;SDS011;5377;43.276;26.930;2023-04-03T13:26:51;3.75;;;1.08;;
10657;SDS011;5377;43.276;26.930;2023-04-03T13:29:20;3.30;;;0.90;;
10657;SDS011;5377;43.276;26.930;2023-04-03T13:31:52;2.30;;;0.90;;
10657;SDS011;5377;43.276;26.930;2023-04-03T13:34:19;0.70;;;0.70;;
10657;SDS011;5377;43.276;26.930;2023-04-03T13:36:54;1.92;;;1.33;;
10657;SDS011;5377;43.276;26.930;2023-04-03T13:39:26;2.65;;;1.70;;
10657;SDS011;5377;43.276;26.930;2023-04-03T13:41:56;1.45;;;1.35;;
10657;SDS011;5377;43.276;26.930;2023-04-03T13:44:28;4.93;;;2.83;;
10657;SDS011;5377;43.276;26.930;2023-04-03T13:46:57;3.10;;;2.78;;
10657;SDS011;5377;43.276;26.930;2023-04-03T13:49:31;5.05;;;3.55;;
10657;SDS011;5377;43.276;26.930;2023-04-03T13:52:00;4.72;;;4.25;;
10657;SDS011;5377;43.276;26.930;2023-04-03T13:54:31;8.98;;;3.97;;
10657;SDS011;5377;43.276;26.930;2023-04-03T13:56:59;4.72;;;4.32;;
10657;SDS011;5377;43.276;26.930;2023-04-03T13:59:30;4.50;;;4.10;;
10657;SDS011;5377;43.276;26.930;2023-04-03T14:02:11;6.60;;;5.25;;
10657;SDS011;5377;43.276;26.930;2023-04-03T14:04:47;4.80;;;4.30;;
10657;SDS011;5377;43.276;26.930;2023-04-03T14:07:18;5.85;;;5.28;;
10657;SDS011;5377;43.276;26.930;2023-04-03T14:09:48;6.22;;;5.55;;
10657;SDS011;5377;43.276;26.930;2023-04-03T14:12:16;7.03;;;5.35;;
10657;SDS011;5377;43.276;26.930;2023-04-03T14:14:45;7.15;;;5.43;;
10657;SDS011;5377;43.276;26.930;2023-04-03T14:17:14;5.07;;;4.63;;
10657;SDS011;5377;43.276;26.930;2023-04-03T14:19:42;5.95;;;4.53;;
10657;SDS011;5377;43.276;26.930;2023-04-03T14:22:12;4.53;;;4.13;;
10657;SDS011;5377;43.276;26.930;2023-04-03T14:24:41;4.18;;;3.88;;
10657;SDS011;5377;43.276;26.930;2023-04-03T14:27:13;4.50;;;4.20;;
10657;SDS011;5377;43.276;26.930;2023-04-03T14:29:43;4.63;;;4.20;;
10657;SDS011;5377;43.276;26.930;2023-04-03T14:32:10;5.75;;;5.25;;
10657;SDS011;5377;43.276;26.930;2023-04-03T14:34:38;5.90;;;5.43;;
10657;SDS011;5377;43.276;26.930;2023-04-03T14:37:05;6.88;;;6.32;;
10657;SDS011;5377;43.276;26.930;2023-04-03T14:39:35;6.50;;;5.90;;
10657;SDS011;5377;43.276;26.930;2023-04-03T14:42:02;9.52;;;6.68;;
10657;SDS011;5377;43.276;26.930;2023-04-03T14:44:30;5.95;;;4.57;;
10657;SDS011;5377;43.276;26.930;2023-04-03T14:46:57;4.93;;;4.47;;
10657;SDS011;5377;43.276;26.930;2023-04-03T14:49:27;5.28;;;4.75;;
10657;SDS011;5377;43.276;26.930;2023-04-03T14:51:54;5.55;;;4.50;;
10657;SDS011;5377;43.276;26.930;2023-04-03T14:54:22;6.53;;;5.75;;
10657;SDS011;5377;43.276;26.930;2023-04-03T14:56:52;5.57;;;5.07;;
10657;SDS011;5377;43.276;26.930;2023-04-03T14:59:20;5.05;;;4.65;;
10657;SDS011;5377;43.276;26.930;2023-04-03T15:01:49;6.40;;;5.90;;
10657;SDS011;5377;43.276;26.930;2023-04-03T15:04:16;4.88;;;4.50;;
10657;SDS011;5377;43.276;26.930;2023-04-03T15:06:45;7.88;;;7.05;;
10657;SDS011;5377;43.276;26.930;2023-04-03T15:09:16;6.22;;;5.70;;
10657;SDS011;5377;43.276;26.930;2023-04-03T15:11:46;6.15;;;5.75;;
10657;SDS011;5377;43.276;26.930;2023-04-03T15:14:13;8.05;;;7.35;;
10657;SDS011;5377;43.276;26.930;2023-04-03T15:16:40;7.55;;;6.85;;